createdAt,value
2022-08-24T00:01:31.852Z,9.73
2022-08-24T00:04:01.764Z,9.82
2022-08-24T00:06:33.693Z,9.38
2022-08-24T02:20:02.973Z,8.20
2022-08-24T02:22:34.002Z,8.95
2022-08-24T02:25:04.212Z,9.57
2022-08-24T02:27:33.861Z,8.40
2022-08-24T02:30:03.585Z,8.25
2022-08-24T02:32:33.180Z,9.02
2022-08-24T02:35:05.029Z,7.93
2022-08-24T02:37:34.709Z,7.88
2022-08-24T03:11:47.907Z,7.82
2022-08-24T03:14:19.172Z,8.13
2022-08-24T03:16:48.688Z,9.15
2022-08-24T03:19:20.278Z,7.90
2022-08-24T03:21:50.044Z,7.55
2022-08-24T03:24:19.560Z,7.55
2022-08-24T03:26:50.496Z,8.80
2022-08-24T03:29:20.134Z,9.60
2022-08-24T03:31:49.757Z,7.18
2022-08-24T03:34:20.941Z,7.15
2022-08-24T03:36:50.572Z,9.00
2022-08-24T03:39:20.057Z,8.13
2022-08-24T03:41:53.776Z,7.93
2022-08-24T03:44:25.125Z,7.68
2022-08-24T03:46:56.211Z,7.13
2022-08-24T03:49:27.709Z,9.00
2022-08-24T03:51:57.189Z,7.47
2022-08-24T03:54:26.840Z,7.32
2022-08-24T03:56:59.005Z,8.02
2022-08-24T03:59:28.754Z,7.82
2022-08-24T04:02:00.876Z,8.63
2022-08-24T04:04:31.686Z,7.57
2022-08-24T04:07:01.377Z,7.93
2022-08-24T04:09:31.154Z,8.05
2022-08-24T04:12:02.221Z,8.15
2022-08-24T04:14:32.591Z,8.15
2022-08-24T04:17:07.662Z,7.22
2022-08-24T04:19:57.710Z,7.97
2022-08-24T04:22:34.112Z,8.77
2022-08-24T04:27:42.768Z,7.53
2022-08-24T04:30:15.150Z,7.93
2022-08-24T04:33:21.400Z,7.47
2022-08-24T04:35:51.640Z,8.43
2022-08-24T04:38:22.121Z,8.23
2022-08-24T04:41:16.152Z,9.32
2022-08-24T04:43:57.801Z,8.65
2022-08-24T04:46:28.577Z,8.68
2022-08-24T04:48:58.947Z,11.43
2022-08-24T04:51:29.322Z,9.45
2022-08-24T04:54:07.872Z,10.07
2022-08-24T04:56:38.324Z,9.20
2022-08-24T04:59:09.440Z,8.27
2022-08-24T05:01:39.093Z,8.88
2022-08-24T05:04:09.291Z,9.27
2022-08-24T05:06:39.120Z,7.85
2022-08-24T05:09:09.937Z,8.43
2022-08-24T05:11:40.744Z,7.13
2022-08-24T05:14:12.042Z,8.50
2022-08-24T05:16:45.845Z,9.25
2022-08-24T05:19:24.120Z,7.93
2022-08-24T05:21:54.295Z,7.57
2022-08-24T05:24:24.618Z,7.72
2022-08-24T05:26:54.200Z,7.60
2022-08-24T05:29:25.702Z,7.35
2022-08-24T05:31:55.290Z,5.97
2022-08-24T05:34:25.984Z,6.32
2022-08-24T05:36:55.845Z,7.65
2022-08-24T05:39:50.461Z,9.18
2022-08-24T05:42:20.081Z,8.27
2022-08-24T05:44:52.864Z,9.95
2022-08-24T05:47:25.327Z,9.48
2022-08-24T05:52:26.897Z,10.90
2022-08-24T05:55:01.030Z,12.18
2022-08-24T05:57:36.958Z,11.80
2022-08-24T06:00:23.245Z,10.60
2022-08-24T06:02:54.139Z,11.32
2022-08-24T06:05:24.960Z,11.30
2022-08-24T06:07:54.496Z,12.15
2022-08-24T06:10:38.935Z,10.45
2022-08-24T06:13:09.425Z,8.05
2022-08-24T06:15:42.686Z,11.18
2022-08-24T06:18:14.429Z,10.48
2022-08-24T06:20:44.590Z,9.95
2022-08-24T06:23:16.201Z,9.30
2022-08-24T06:26:14.640Z,10.73
2022-08-24T06:28:46.932Z,9.38
2022-08-24T06:31:18.094Z,9.15
2022-08-24T06:33:48.847Z,9.45
2022-08-24T06:36:18.844Z,9.55
2022-08-24T06:38:52.498Z,8.40
2022-08-24T06:41:22.500Z,7.18
2022-08-24T06:43:52.371Z,7.15
2022-08-24T06:46:32.764Z,7.60
2022-08-24T06:49:03.333Z,6.72
2022-08-24T06:51:37.162Z,6.18
2022-08-24T06:54:07.828Z,6.53
2022-08-24T06:56:38.497Z,6.63
2022-08-24T06:59:08.280Z,6.40
2022-08-24T07:01:42.763Z,6.47
2022-08-24T07:04:12.721Z,7.28
2022-08-24T07:07:02.481Z,6.40
2022-08-24T07:09:33.431Z,7.25
2022-08-24T07:12:02.994Z,7.20
2022-08-24T07:14:32.990Z,5.07
2022-08-24T07:17:06.643Z,6.43
2022-08-24T07:19:36.626Z,5.30
2022-08-24T07:22:06.697Z,5.55
2022-08-24T07:24:36.513Z,5.07
2022-08-24T07:27:06.676Z,6.15
2022-08-24T07:30:10.010Z,5.57
2022-08-24T07:32:31.466Z,5.57
2022-08-24T07:35:01.068Z,5.82
2022-08-24T07:37:41.116Z,4.90
2022-08-24T07:40:13.852Z,6.18
2022-08-24T07:42:44.348Z,5.13
2022-08-24T07:45:13.936Z,4.97
2022-08-24T07:47:54.625Z,8.95
2022-08-24T07:53:11.128Z,6.40
2022-08-24T07:55:46.060Z,6.07
2022-08-24T07:58:15.817Z,4.53
2022-08-24T08:00:48.591Z,4.70
2022-08-24T08:05:49.573Z,6.28
2022-08-24T08:08:19.321Z,6.45
2022-08-24T08:10:49.858Z,9.38
2022-08-24T08:13:19.978Z,6.35
2022-08-24T08:15:50.992Z,5.35
2022-08-24T08:18:21.908Z,5.55
2022-08-24T08:20:52.013Z,5.07
2022-08-24T08:23:39.826Z,6.47
2022-08-24T08:26:22.313Z,5.60
2022-08-24T08:29:04.061Z,7.55
2022-08-24T08:31:36.117Z,6.50
2022-08-24T08:34:08.620Z,5.70
2022-08-24T08:36:42.097Z,5.03
2022-08-24T08:39:17.049Z,5.85
2022-08-24T08:42:39.594Z,6.68
2022-08-24T08:45:29.309Z,6.43
2022-08-24T08:49:20.339Z,6.65
2022-08-24T08:52:31.575Z,5.93
2022-08-24T08:55:22.576Z,5.78
2022-08-24T08:58:11.357Z,7.63
2022-08-24T09:01:05.251Z,6.70
2022-08-24T09:04:21.745Z,5.03
2022-08-24T09:07:39.670Z,6.50
2022-08-24T09:10:43.401Z,7.03
2022-08-24T09:13:55.369Z,6.22
2022-08-24T09:17:13.120Z,5.35
2022-08-24T09:20:10.764Z,5.15
2022-08-24T09:22:44.502Z,5.40
2022-08-24T09:25:26.668Z,5.05
2022-08-24T09:31:54.800Z,6.20
2022-08-24T09:34:42.532Z,5.32
2022-08-24T09:37:35.292Z,5.13
2022-08-24T09:40:49.020Z,5.78
2022-08-24T09:44:19.530Z,3.13
2022-08-24T09:47:36.820Z,3.85
2022-08-24T09:51:11.547Z,4.40
2022-08-24T09:54:57.373Z,4.88
2022-08-24T09:58:00.540Z,5.35
2022-08-24T10:00:40.390Z,3.45
2022-08-24T10:03:42.673Z,6.57
2022-08-24T10:06:29.773Z,8.13
2022-08-24T10:09:41.296Z,3.38
2022-08-24T10:12:26.894Z,4.15
2022-08-24T10:15:06.237Z,4.20
2022-08-24T10:17:59.015Z,5.63
2022-08-24T10:20:49.424Z,6.35
2022-08-24T10:23:51.271Z,5.15
2022-08-24T10:26:37.651Z,9.88
2022-08-24T10:29:53.390Z,4.03
2022-08-24T10:32:47.485Z,5.05
2022-08-24T10:35:27.349Z,3.58
2022-08-24T10:38:49.828Z,4.47
2022-08-24T10:42:36.190Z,3.17
2022-08-24T10:45:31.367Z,3.88
2022-08-24T10:48:42.764Z,3.25
2022-08-24T10:51:34.558Z,3.90
2022-08-24T10:54:06.523Z,2.70
2022-08-24T10:56:59.633Z,5.43
2022-08-24T10:59:40.634Z,3.20
2022-08-24T11:02:31.417Z,2.85
2022-08-24T11:05:08.041Z,3.92
2022-08-24T11:07:56.876Z,3.55
2022-08-24T11:10:30.600Z,5.22
2022-08-24T11:13:25.081Z,2.65
2022-08-24T11:16:00.332Z,3.58
2022-08-24T11:18:50.789Z,3.90
2022-08-24T11:21:46.785Z,3.80
2022-08-24T11:24:41.543Z,4.07
2022-08-24T11:27:30.777Z,4.28
2022-08-24T11:30:12.820Z,3.33
2022-08-24T11:32:48.332Z,2.85
2022-08-24T11:35:27.222Z,2.80
2022-08-24T11:38:07.504Z,3.45
2022-08-24T11:40:43.908Z,2.70
2022-08-24T11:43:43.760Z,6.72
2022-08-24T11:46:29.121Z,2.60
2022-08-24T11:49:12.104Z,2.58
2022-08-24T11:51:53.431Z,4.05
2022-08-24T11:54:38.017Z,6.15
2022-08-24T11:57:15.024Z,3.30
2022-08-24T11:59:56.609Z,2.88
2022-08-24T12:02:42.639Z,3.85
2022-08-24T12:05:26.657Z,4.68
2022-08-24T12:08:12.103Z,3.13
2022-08-24T12:10:55.019Z,3.80
2022-08-24T12:13:37.981Z,3.10
2022-08-24T12:16:18.524Z,3.00
2022-08-24T12:18:58.462Z,4.55
2022-08-24T12:21:32.729Z,3.35
2022-08-24T12:24:08.875Z,4.63
2022-08-24T12:26:44.060Z,10.00
2022-08-24T12:29:31.677Z,2.65
2022-08-24T12:32:10.303Z,3.35
2022-08-24T12:34:58.086Z,2.85
2022-08-24T12:37:35.075Z,3.13
2022-08-24T12:40:29.205Z,3.40
2022-08-24T12:43:08.559Z,4.18
2022-08-24T12:45:38.871Z,2.72
2022-08-24T12:48:20.892Z,3.60
2022-08-24T12:51:15.078Z,3.80
2022-08-24T12:54:02.642Z,2.75
2022-08-24T12:57:31.455Z,3.60
2022-08-24T13:00:09.962Z,3.78
2022-08-24T13:02:47.698Z,2.65
2022-08-24T13:05:21.079Z,2.95
2022-08-24T13:07:55.948Z,4.68
2022-08-24T13:10:44.774Z,2.95
2022-08-24T13:13:23.672Z,2.90
2022-08-24T13:16:03.182Z,4.22
2022-08-24T13:19:16.655Z,2.40
2022-08-24T13:21:55.420Z,3.00
2022-08-24T13:25:01.377Z,6.00
2022-08-24T13:28:40.965Z,3.33
2022-08-24T13:31:35.965Z,3.75
2022-08-24T13:34:44.191Z,2.20
2022-08-24T13:37:17.605Z,2.40
2022-08-24T13:40:09.782Z,3.03
2022-08-24T13:43:12.254Z,2.08
2022-08-24T13:48:34.984Z,4.47
2022-08-24T13:51:43.659Z,2.45
2022-08-24T13:54:28.611Z,2.97
2022-08-24T13:57:25.491Z,4.93
2022-08-24T14:00:32.196Z,3.80
2022-08-24T14:04:06.342Z,2.90
2022-08-24T14:06:48.037Z,2.38
2022-08-24T14:09:37.437Z,1.80
2022-08-24T14:12:45.507Z,3.20
2022-08-24T14:15:26.424Z,4.68
2022-08-24T14:18:11.599Z,1.98
2022-08-24T14:21:09.143Z,1.60
2022-08-24T14:23:55.632Z,2.70
2022-08-24T14:27:08.151Z,2.17
2022-08-24T14:30:54.664Z,1.88
2022-08-24T14:33:32.809Z,2.40
2022-08-24T14:36:23.058Z,3.70
2022-08-24T14:39:11.408Z,2.58
2022-08-24T14:42:05.234Z,4.18
2022-08-24T14:44:57.805Z,3.00
2022-08-24T14:47:56.604Z,10.98
2022-08-24T14:50:35.997Z,3.72
2022-08-24T14:53:32.451Z,1.85
2022-08-24T14:56:25.025Z,2.20
2022-08-24T14:59:07.910Z,1.58
2022-08-24T15:01:45.436Z,3.75
2022-08-24T15:04:44.580Z,2.65
2022-08-24T15:07:30.170Z,2.40
2022-08-24T15:10:02.900Z,1.80
2022-08-24T15:12:42.165Z,2.67
2022-08-24T15:15:25.396Z,2.38
2022-08-24T15:18:09.772Z,3.47
2022-08-24T15:21:13.012Z,2.33
2022-08-24T15:24:01.898Z,2.20
2022-08-24T15:26:51.537Z,3.50
2022-08-24T15:29:26.725Z,3.85
2022-08-24T15:32:02.196Z,2.22
2022-08-24T15:34:48.618Z,3.28
2022-08-24T15:37:32.404Z,3.90
2022-08-24T15:40:05.413Z,1.88
2022-08-24T15:42:38.333Z,3.63
2022-08-24T15:45:08.924Z,2.10
2022-08-24T15:47:49.798Z,2.28
2022-08-24T15:50:29.577Z,1.65
2022-08-24T15:53:04.821Z,3.20
2022-08-24T15:55:42.736Z,2.33
2022-08-24T15:58:32.648Z,4.18
2022-08-24T16:01:42.949Z,3.03
2022-08-24T16:04:47.803Z,4.50
2022-08-24T16:07:27.829Z,2.58
2022-08-24T16:10:10.343Z,2.92
2022-08-24T16:12:40.895Z,2.08
2022-08-24T16:15:18.306Z,4.88
2022-08-24T16:17:51.662Z,3.45
2022-08-24T16:20:35.845Z,2.72
2022-08-24T16:23:13.460Z,4.38
2022-08-24T16:25:51.076Z,2.50
2022-08-24T16:28:38.508Z,1.50
2022-08-24T16:31:09.921Z,2.10
2022-08-24T16:33:45.706Z,2.83
2022-08-24T16:36:20.363Z,2.58
2022-08-24T16:38:52.646Z,1.98
2022-08-24T16:41:25.965Z,2.92
2022-08-24T16:43:55.503Z,2.30
2022-08-24T16:46:25.558Z,3.53
2022-08-24T16:48:55.633Z,3.60
2022-08-24T16:51:25.168Z,3.45
2022-08-24T16:53:56.278Z,3.55
2022-08-24T16:56:26.040Z,3.92
2022-08-24T16:58:55.908Z,2.88
2022-08-24T17:01:25.766Z,2.63
2022-08-24T17:03:55.325Z,3.88
2022-08-24T17:06:24.973Z,3.00
2022-08-24T17:08:56.494Z,4.55
2022-08-24T17:11:27.015Z,2.90
2022-08-24T17:13:56.918Z,5.40
2022-08-24T17:16:26.571Z,6.00
2022-08-24T17:18:58.697Z,3.55
2022-08-24T17:21:28.196Z,3.05
2022-08-24T17:23:59.102Z,1.98
2022-08-24T17:26:29.119Z,2.15
2022-08-24T17:28:59.110Z,2.92
2022-08-24T17:31:29.773Z,2.75
2022-08-24T17:34:00.246Z,4.15
2022-08-24T17:36:31.159Z,5.07
2022-08-24T17:39:06.725Z,3.38
2022-08-24T17:41:36.257Z,2.53
2022-08-24T17:44:07.222Z,3.97
2022-08-24T17:46:37.564Z,2.17
2022-08-24T17:49:11.586Z,2.88
2022-08-24T17:51:41.390Z,3.67
2022-08-24T17:54:12.444Z,2.35
2022-08-24T18:07:03.212Z,3.47
2022-08-24T18:09:39.753Z,3.08
2022-08-24T18:12:10.385Z,3.65
2022-08-24T18:14:39.933Z,1.98
2022-08-24T18:17:19.145Z,3.90
2022-08-24T18:19:54.306Z,2.13
2022-08-24T18:24:54.372Z,2.88
2022-08-24T18:27:30.304Z,3.47
2022-08-24T18:30:04.313Z,3.35
2022-08-24T18:32:39.591Z,3.67
2022-08-24T18:35:09.970Z,3.67
2022-08-24T18:37:39.665Z,2.55
2022-08-24T18:40:21.077Z,5.30
2022-08-24T18:42:51.562Z,6.53
2022-08-24T18:45:21.617Z,5.47
2022-08-24T18:47:53.336Z,4.88
2022-08-24T18:50:23.861Z,4.22
2022-08-24T18:52:53.389Z,4.10
2022-08-24T18:55:25.174Z,4.20
2022-08-24T18:57:55.148Z,3.40
2022-08-24T19:00:24.730Z,2.58
2022-08-24T19:03:02.463Z,3.17
2022-08-24T19:05:32.417Z,4.38
2022-08-24T19:08:01.900Z,3.15
2022-08-24T19:10:37.883Z,3.97
2022-08-24T19:13:14.173Z,3.38
2022-08-24T19:15:46.615Z,3.53
2022-08-24T19:18:18.343Z,3.80
2022-08-24T19:20:52.120Z,3.72
2022-08-24T19:23:27.587Z,3.80
2022-08-24T19:26:00.216Z,4.60
2022-08-24T19:31:03.200Z,7.60
2022-08-24T19:33:39.084Z,5.25
2022-08-24T19:36:11.325Z,3.53
2022-08-24T19:38:41.134Z,3.95
2022-08-24T19:41:14.227Z,5.50
2022-08-24T19:43:57.888Z,5.45
2022-08-24T19:46:27.704Z,5.97
2022-08-24T19:48:57.181Z,4.85
2022-08-24T19:51:27.059Z,4.45
2022-08-24T19:53:56.623Z,5.75
2022-08-24T19:56:27.560Z,5.72
2022-08-24T19:59:04.097Z,7.03
2022-08-24T20:01:37.267Z,6.03
2022-08-24T20:04:08.306Z,6.25
2022-08-24T20:06:40.813Z,7.40
2022-08-24T20:09:11.206Z,4.53
2022-08-24T20:11:42.633Z,6.72
2022-08-24T20:14:12.373Z,4.13
2022-08-24T20:16:43.787Z,6.35
2022-08-24T20:19:13.939Z,5.15
2022-08-24T20:21:43.448Z,4.10
2022-08-24T20:24:13.013Z,5.88
2022-08-24T20:26:46.609Z,6.20
2022-08-24T20:29:16.207Z,7.78
2022-08-24T20:31:48.444Z,7.35
2022-08-24T20:34:20.536Z,4.30
2022-08-24T20:36:52.013Z,4.45
2022-08-24T20:39:26.854Z,5.80
2022-08-24T20:41:58.233Z,6.78
2022-08-24T20:44:28.768Z,5.28
2022-08-24T20:46:58.779Z,5.03
2022-08-24T20:49:28.650Z,5.55
2022-08-24T20:52:00.222Z,7.07
2022-08-24T20:54:30.017Z,5.65
2022-08-24T20:57:01.560Z,9.43
2022-08-24T20:59:31.301Z,5.03
2022-08-24T21:02:01.061Z,8.23
2022-08-24T21:04:30.839Z,6.07
2022-08-24T21:07:00.461Z,5.47
2022-08-24T21:09:30.000Z,5.65
2022-08-24T21:12:01.476Z,7.35
2022-08-24T21:14:31.028Z,4.95
2022-08-24T21:17:00.890Z,5.05
2022-08-24T21:19:31.234Z,6.78
2022-08-24T21:22:01.180Z,5.40
2022-08-24T21:24:30.750Z,5.07
2022-08-24T21:27:02.533Z,5.15
2022-08-24T21:29:33.599Z,8.70
2022-08-24T21:32:21.065Z,6.55
2022-08-24T21:34:50.734Z,5.53
2022-08-24T21:37:21.285Z,5.50
2022-08-24T21:39:52.002Z,6.25
2022-08-24T21:42:23.015Z,8.18
2022-08-24T21:44:52.729Z,5.55
2022-08-24T21:47:22.280Z,7.55
2022-08-24T21:49:51.913Z,5.15
2022-08-24T21:52:21.549Z,7.60
2022-08-24T21:54:52.068Z,6.45
2022-08-24T21:57:22.956Z,6.35
2022-08-24T21:59:52.983Z,5.47
2022-08-24T22:02:22.582Z,7.28
2022-08-24T22:04:56.731Z,6.97
2022-08-24T22:07:26.925Z,5.63
2022-08-24T22:09:56.588Z,5.18
2022-08-24T22:12:27.674Z,7.03
2022-08-24T22:14:57.237Z,5.35
2022-08-24T22:17:26.834Z,8.48
2022-08-24T22:19:56.610Z,6.57
2022-08-24T22:22:26.615Z,6.78
2022-08-24T22:24:56.225Z,5.10
2022-08-24T22:27:27.074Z,5.70
2022-08-24T22:29:57.805Z,5.57
2022-08-24T22:32:27.905Z,6.32
2022-08-24T22:34:57.375Z,6.75
2022-08-24T22:37:26.870Z,5.88
2022-08-24T22:39:56.778Z,5.80
2022-08-24T22:42:28.176Z,7.00
2022-08-24T22:44:58.637Z,6.15
2022-08-24T22:47:28.305Z,7.95
2022-08-24T22:50:11.012Z,6.13
2022-08-24T22:52:40.631Z,7.70
2022-08-24T22:55:11.854Z,5.90
2022-08-24T22:57:42.916Z,7.03
2022-08-24T23:00:17.093Z,5.05
2022-08-24T23:02:46.714Z,5.45
2022-08-24T23:05:16.253Z,7.28
2022-08-24T23:07:46.169Z,6.50
2022-08-24T23:10:16.344Z,9.20
2022-08-24T23:12:47.195Z,8.32
2022-08-24T23:15:16.896Z,5.65
2022-08-24T23:17:46.403Z,7.18
2022-08-24T23:20:14.936Z,6.22
2022-08-24T23:22:44.413Z,6.15
2022-08-24T23:25:15.359Z,5.90
2022-08-24T23:27:49.844Z,8.00
2022-08-24T23:30:22.104Z,6.05
2022-08-24T23:32:51.548Z,6.75
2022-08-24T23:35:21.266Z,8.52
2022-08-24T23:37:50.738Z,5.45
2022-08-24T23:40:20.501Z,5.37
2022-08-24T23:42:51.884Z,5.80
2022-08-24T23:45:28.150Z,6.28
2022-08-24T23:47:58.426Z,5.87
2022-08-24T23:50:27.899Z,8.65
2022-08-24T23:52:57.356Z,7.68
2022-08-24T23:55:27.327Z,9.32
2022-08-24T23:57:58.156Z,5.25
